sensor_id;sensor_type;location;lat;lon;timestamp;P1;durP1;ratioP1;P2;durP2;ratioP2
15295;SDS011;7749;49.964;7.890;2023-03-25T00:00:13;0.40;;;0.40;;
15295;SDS011;7749;49.964;7.890;2023-03-25T00:02:44;0.53;;;0.40;;
15295;SDS011;7749;49.964;7.890;2023-03-25T00:05:17;2.13;;;0.50;;
15295;SDS011;7749;49.964;7.890;2023-03-25T00:07:50;1.90;;;0.40;;
15295;SDS011;7749;49.964;7.890;2023-03-25T00:10:18;0.83;;;0.40;;
15295;SDS011;7749;49.964;7.890;2023-03-25T00:12:46;1.17;;;0.40;;
15295;SDS011;7749;49.964;7.890;2023-03-25T00:15:14;0.40;;;0.40;;
15295;SDS011;7749;49.964;7.890;2023-03-25T00:17:42;1.27;;;0.50;;
15295;SDS011;7749;49.964;7.890;2023-03-25T00:20:11;0.57;;;0.40;;
15295;SDS011;7749;49.964;7.890;2023-03-25T00:22:40;0.70;;;0.40;;
15295;SDS011;7749;49.964;7.890;2023-03-25T00:25:11;0.43;;;0.40;;
15295;SDS011;7749;49.964;7.890;2023-03-25T00:27:47;0.87;;;0.33;;
15295;SDS011;7749;49.964;7.890;2023-03-25T00:30:17;1.43;;;0.33;;
15295;SDS011;7749;49.964;7.890;2023-03-25T00:32:45;0.60;;;0.50;;
15295;SDS011;7749;49.964;7.890;2023-03-25T00:35:16;1.00;;;0.50;;
15295;SDS011;7749;49.964;7.890;2023-03-25T00:37:46;3.27;;;0.70;;
15295;SDS011;7749;49.964;7.890;2023-03-25T00:40:23;2.07;;;0.40;;
15295;SDS011;7749;49.964;7.890;2023-03-25T00:42:51;1.53;;;0.53;;
15295;SDS011;7749;49.964;7.890;2023-03-25T00:45:19;0.50;;;0.40;;
15295;SDS011;7749;49.964;7.890;2023-03-25T00:47:46;1.00;;;0.50;;
15295;SDS011;7749;49.964;7.890;2023-03-25T00:50:17;0.80;;;0.50;;
15295;SDS011;7749;49.964;7.890;2023-03-25T00:52:45;0.47;;;0.30;;
15295;SDS011;7749;49.964;7.890;2023-03-25T00:55:12;1.60;;;0.50;;
15295;SDS011;7749;49.964;7.890;2023-03-25T00:57:40;0.97;;;0.50;;
15295;SDS011;7749;49.964;7.890;2023-03-25T01:00:09;1.40;;;0.50;;
15295;SDS011;7749;49.964;7.890;2023-03-25T01:02:38;2.03;;;0.70;;
15295;SDS011;7749;49.964;7.890;2023-03-25T01:05:08;1.30;;;0.50;;
15295;SDS011;7749;49.964;7.890;2023-03-25T01:07:38;1.00;;;0.60;;
15295;SDS011;7749;49.964;7.890;2023-03-25T01:10:11;1.80;;;0.53;;
15295;SDS011;7749;49.964;7.890;2023-03-25T01:12:39;0.50;;;0.37;;
15295;SDS011;7749;49.964;7.890;2023-03-25T01:15:08;0.90;;;0.60;;
15295;SDS011;7749;49.964;7.890;2023-03-25T01:17:36;0.50;;;0.50;;
15295;SDS011;7749;49.964;7.890;2023-03-25T01:20:04;1.07;;;0.43;;
15295;SDS011;7749;49.964;7.890;2023-03-25T01:22:32;2.20;;;0.57;;
15295;SDS011;7749;49.964;7.890;2023-03-25T01:25:00;2.10;;;1.10;;
15295;SDS011;7749;49.964;7.890;2023-03-25T01:27:28;1.60;;;1.00;;
15295;SDS011;7749;49.964;7.890;2023-03-25T01:29:56;1.17;;;0.60;;
15295;SDS011;7749;49.964;7.890;2023-03-25T01:32:24;1.97;;;1.37;;
15295;SDS011;7749;49.964;7.890;2023-03-25T01:34:54;1.73;;;1.10;;
15295;SDS011;7749;49.964;7.890;2023-03-25T01:37:22;2.20;;;0.60;;
15295;SDS011;7749;49.964;7.890;2023-03-25T01:39:53;3.50;;;0.80;;
15295;SDS011;7749;49.964;7.890;2023-03-25T01:42:20;5.57;;;2.77;;
15295;SDS011;7749;49.964;7.890;2023-03-25T01:47:18;3.10;;;1.50;;
15295;SDS011;7749;49.964;7.890;2023-03-25T01:49:46;1.57;;;0.80;;
15295;SDS011;7749;49.964;7.890;2023-03-25T01:52:17;2.20;;;0.70;;
15295;SDS011;7749;49.964;7.890;2023-03-25T01:54:50;2.30;;;1.67;;
15295;SDS011;7749;49.964;7.890;2023-03-25T01:57:22;3.20;;;2.03;;
15295;SDS011;7749;49.964;7.890;2023-03-25T01:59:52;5.20;;;4.13;;
15295;SDS011;7749;49.964;7.890;2023-03-25T02:02:20;6.47;;;4.37;;
15295;SDS011;7749;49.964;7.890;2023-03-25T02:04:58;6.07;;;3.93;;
15295;SDS011;7749;49.964;7.890;2023-03-25T02:07:37;3.87;;;2.53;;
15295;SDS011;7749;49.964;7.890;2023-03-25T02:10:09;2.17;;;1.17;;
15295;SDS011;7749;49.964;7.890;2023-03-25T02:12:37;1.60;;;1.00;;
15295;SDS011;7749;49.964;7.890;2023-03-25T02:15:07;2.97;;;1.43;;
15295;SDS011;7749;49.964;7.890;2023-03-25T02:26:04;2.93;;;1.00;;
15295;SDS011;7749;49.964;7.890;2023-03-25T02:35:10;2.63;;;0.80;;
15295;SDS011;7749;49.964;7.890;2023-03-25T02:40:50;1.77;;;1.17;;
15295;SDS011;7749;49.964;7.890;2023-03-25T02:46:08;4.13;;;2.37;;
15295;SDS011;7749;49.964;7.890;2023-03-25T02:48:44;3.10;;;0.97;;
15295;SDS011;7749;49.964;7.890;2023-03-25T02:51:17;4.97;;;1.03;;
15295;SDS011;7749;49.964;7.890;2023-03-25T02:53:49;2.87;;;0.90;;
15295;SDS011;7749;49.964;7.890;2023-03-25T02:56:18;3.13;;;0.70;;
15295;SDS011;7749;49.964;7.890;2023-03-25T02:58:52;2.80;;;1.00;;
15295;SDS011;7749;49.964;7.890;2023-03-25T03:01:23;2.67;;;1.47;;
15295;SDS011;7749;49.964;7.890;2023-03-25T03:03:53;3.03;;;1.00;;
15295;SDS011;7749;49.964;7.890;2023-03-25T03:06:22;3.93;;;2.03;;
15295;SDS011;7749;49.964;7.890;2023-03-25T03:09:00;3.13;;;1.17;;
15295;SDS011;7749;49.964;7.890;2023-03-25T03:19:51;1.77;;;0.90;;
15295;SDS011;7749;49.964;7.890;2023-03-25T03:23:03;1.57;;;0.70;;
15295;SDS011;7749;49.964;7.890;2023-03-25T03:31:16;5.30;;;1.60;;
15295;SDS011;7749;49.964;7.890;2023-03-25T03:34:23;2.20;;;1.00;;
15295;SDS011;7749;49.964;7.890;2023-03-25T03:37:17;3.60;;;1.17;;
15295;SDS011;7749;49.964;7.890;2023-03-25T03:39:49;3.47;;;1.10;;
15295;SDS011;7749;49.964;7.890;2023-03-25T03:42:22;4.70;;;1.33;;
15295;SDS011;7749;49.964;7.890;2023-03-25T03:44:59;2.87;;;1.00;;
15295;SDS011;7749;49.964;7.890;2023-03-25T03:47:34;3.47;;;0.90;;
15295;SDS011;7749;49.964;7.890;2023-03-25T03:50:07;3.40;;;0.97;;
15295;SDS011;7749;49.964;7.890;2023-03-25T03:52:53;3.03;;;1.03;;
15295;SDS011;7749;49.964;7.890;2023-03-25T03:56:13;2.70;;;1.10;;
15295;SDS011;7749;49.964;7.890;2023-03-25T03:58:20;2.40;;;0.90;;
15295;SDS011;7749;49.964;7.890;2023-03-25T04:01:13;2.63;;;0.80;;
15295;SDS011;7749;49.964;7.890;2023-03-25T04:03:55;1.87;;;0.90;;
15295;SDS011;7749;49.964;7.890;2023-03-25T04:06:26;3.83;;;1.20;;
15295;SDS011;7749;49.964;7.890;2023-03-25T04:08:59;2.23;;;1.00;;
15295;SDS011;7749;49.964;7.890;2023-03-25T04:11:39;3.83;;;1.20;;
15295;SDS011;7749;49.964;7.890;2023-03-25T04:14:13;3.00;;;1.70;;
15295;SDS011;7749;49.964;7.890;2023-03-25T04:16:43;2.63;;;1.23;;
15295;SDS011;7749;49.964;7.890;2023-03-25T04:19:11;3.23;;;1.70;;
15295;SDS011;7749;49.964;7.890;2023-03-25T04:21:45;3.40;;;1.87;;
15295;SDS011;7749;49.964;7.890;2023-03-25T04:24:16;3.20;;;1.00;;
15295;SDS011;7749;49.964;7.890;2023-03-25T04:26:45;3.00;;;1.57;;
15295;SDS011;7749;49.964;7.890;2023-03-25T04:29:13;2.37;;;1.00;;
15295;SDS011;7749;49.964;7.890;2023-03-25T04:31:41;4.00;;;1.40;;
15295;SDS011;7749;49.964;7.890;2023-03-25T04:34:12;3.93;;;1.60;;
15295;SDS011;7749;49.964;7.890;2023-03-25T04:36:44;5.23;;;1.50;;
15295;SDS011;7749;49.964;7.890;2023-03-25T04:39:13;1.90;;;1.50;;
15295;SDS011;7749;49.964;7.890;2023-03-25T04:41:48;3.97;;;1.80;;
15295;SDS011;7749;49.964;7.890;2023-03-25T04:44:19;2.63;;;1.10;;
15295;SDS011;7749;49.964;7.890;2023-03-25T04:46:48;2.77;;;1.20;;
15295;SDS011;7749;49.964;7.890;2023-03-25T04:49:20;3.57;;;1.00;;
15295;SDS011;7749;49.964;7.890;2023-03-25T04:51:50;3.00;;;1.03;;
15295;SDS011;7749;49.964;7.890;2023-03-25T04:54:19;3.33;;;1.67;;
15295;SDS011;7749;49.964;7.890;2023-03-25T04:56:47;3.93;;;1.20;;
15295;SDS011;7749;49.964;7.890;2023-03-25T04:59:19;3.50;;;1.07;;
15295;SDS011;7749;49.964;7.890;2023-03-25T05:01:47;3.00;;;1.10;;
15295;SDS011;7749;49.964;7.890;2023-03-25T05:04:16;1.70;;;0.80;;
15295;SDS011;7749;49.964;7.890;2023-03-25T05:06:45;2.20;;;1.30;;
15295;SDS011;7749;49.964;7.890;2023-03-25T05:09:17;2.47;;;0.90;;
15295;SDS011;7749;49.964;7.890;2023-03-25T05:11:48;5.03;;;1.10;;
15295;SDS011;7749;49.964;7.890;2023-03-25T05:14:18;5.40;;;1.20;;
15295;SDS011;7749;49.964;7.890;2023-03-25T05:16:47;2.97;;;0.97;;
15295;SDS011;7749;49.964;7.890;2023-03-25T05:19:15;2.57;;;0.73;;
15295;SDS011;7749;49.964;7.890;2023-03-25T05:21:45;4.30;;;1.03;;
15295;SDS011;7749;49.964;7.890;2023-03-25T05:24:12;5.17;;;1.20;;
15295;SDS011;7749;49.964;7.890;2023-03-25T05:26:40;3.87;;;0.83;;
15295;SDS011;7749;49.964;7.890;2023-03-25T05:29:09;2.10;;;1.10;;
15295;SDS011;7749;49.964;7.890;2023-03-25T05:31:41;2.20;;;0.60;;
15295;SDS011;7749;49.964;7.890;2023-03-25T05:34:12;2.17;;;0.87;;
15295;SDS011;7749;49.964;7.890;2023-03-25T05:36:40;3.00;;;0.97;;
15295;SDS011;7749;49.964;7.890;2023-03-25T05:39:09;2.37;;;1.00;;
15295;SDS011;7749;49.964;7.890;2023-03-25T05:41:37;3.27;;;1.33;;
15295;SDS011;7749;49.964;7.890;2023-03-25T05:44:08;2.47;;;0.70;;
15295;SDS011;7749;49.964;7.890;2023-03-25T05:46:36;2.37;;;0.70;;
15295;SDS011;7749;49.964;7.890;2023-03-25T05:49:06;2.07;;;0.90;;
15295;SDS011;7749;49.964;7.890;2023-03-25T05:51:34;1.60;;;0.80;;
15295;SDS011;7749;49.964;7.890;2023-03-25T05:54:08;1.67;;;0.83;;
15295;SDS011;7749;49.964;7.890;2023-03-25T05:56:40;2.87;;;1.07;;
15295;SDS011;7749;49.964;7.890;2023-03-25T05:59:08;2.53;;;1.10;;
15295;SDS011;7749;49.964;7.890;2023-03-25T06:01:36;1.23;;;0.60;;
15295;SDS011;7749;49.964;7.890;2023-03-25T06:04:04;2.63;;;1.10;;
15295;SDS011;7749;49.964;7.890;2023-03-25T06:06:36;2.37;;;0.90;;
15295;SDS011;7749;49.964;7.890;2023-03-25T06:09:07;1.43;;;0.70;;
15295;SDS011;7749;49.964;7.890;2023-03-25T06:11:36;1.77;;;0.70;;
15295;SDS011;7749;49.964;7.890;2023-03-25T06:14:06;1.47;;;0.70;;
15295;SDS011;7749;49.964;7.890;2023-03-25T06:16:34;1.97;;;0.90;;
15295;SDS011;7749;49.964;7.890;2023-03-25T06:19:02;2.07;;;0.60;;
15295;SDS011;7749;49.964;7.890;2023-03-25T06:21:30;1.97;;;0.80;;
15295;SDS011;7749;49.964;7.890;2023-03-25T06:24:00;2.63;;;0.90;;
15295;SDS011;7749;49.964;7.890;2023-03-25T06:26:28;2.93;;;0.83;;
15295;SDS011;7749;49.964;7.890;2023-03-25T06:28:56;4.20;;;1.10;;
15295;SDS011;7749;49.964;7.890;2023-03-25T06:31:24;2.73;;;1.07;;
15295;SDS011;7749;49.964;7.890;2023-03-25T06:33:53;4.13;;;1.33;;
15295;SDS011;7749;49.964;7.890;2023-03-25T06:36:22;4.43;;;1.50;;
15295;SDS011;7749;49.964;7.890;2023-03-25T06:38:52;5.40;;;1.50;;
15295;SDS011;7749;49.964;7.890;2023-03-25T06:41:23;2.87;;;1.20;;
15295;SDS011;7749;49.964;7.890;2023-03-25T06:43:51;2.83;;;1.20;;
15295;SDS011;7749;49.964;7.890;2023-03-25T06:46:19;5.87;;;1.47;;
15295;SDS011;7749;49.964;7.890;2023-03-25T06:48:47;3.30;;;1.30;;
15295;SDS011;7749;49.964;7.890;2023-03-25T06:51:15;4.80;;;1.10;;
15295;SDS011;7749;49.964;7.890;2023-03-25T06:53:43;2.83;;;1.13;;
15295;SDS011;7749;49.964;7.890;2023-03-25T06:56:11;3.13;;;1.20;;
15295;SDS011;7749;49.964;7.890;2023-03-25T06:58:39;3.57;;;1.17;;
15295;SDS011;7749;49.964;7.890;2023-03-25T07:01:07;4.73;;;1.27;;
15295;SDS011;7749;49.964;7.890;2023-03-25T07:03:35;3.50;;;1.20;;
15295;SDS011;7749;49.964;7.890;2023-03-25T07:06:04;5.50;;;1.20;;
15295;SDS011;7749;49.964;7.890;2023-03-25T07:08:33;5.00;;;1.70;;
15295;SDS011;7749;49.964;7.890;2023-03-25T07:11:01;8.07;;;1.67;;
15295;SDS011;7749;49.964;7.890;2023-03-25T07:13:30;8.80;;;1.87;;
15295;SDS011;7749;49.964;7.890;2023-03-25T07:15:58;5.13;;;1.60;;
15295;SDS011;7749;49.964;7.890;2023-03-25T07:18:27;5.93;;;1.33;;
15295;SDS011;7749;49.964;7.890;2023-03-25T07:20:55;6.67;;;1.90;;
15295;SDS011;7749;49.964;7.890;2023-03-25T07:23:22;5.83;;;1.40;;
15295;SDS011;7749;49.964;7.890;2023-03-25T07:25:50;5.93;;;1.60;;
15295;SDS011;7749;49.964;7.890;2023-03-25T07:28:19;4.97;;;1.30;;
15295;SDS011;7749;49.964;7.890;2023-03-25T07:30:46;4.83;;;1.60;;
15295;SDS011;7749;49.964;7.890;2023-03-25T07:33:17;6.40;;;1.97;;
15295;SDS011;7749;49.964;7.890;2023-03-25T07:35:44;6.80;;;1.53;;
15295;SDS011;7749;49.964;7.890;2023-03-25T07:38:14;9.73;;;1.83;;
15295;SDS011;7749;49.964;7.890;2023-03-25T07:40:42;7.80;;;1.90;;
15295;SDS011;7749;49.964;7.890;2023-03-25T07:43:16;5.70;;;1.70;;
15295;SDS011;7749;49.964;7.890;2023-03-25T07:45:46;8.27;;;1.70;;
15295;SDS011;7749;49.964;7.890;2023-03-25T07:48:13;8.50;;;1.67;;
15295;SDS011;7749;49.964;7.890;2023-03-25T07:50:42;8.43;;;1.70;;
15295;SDS011;7749;49.964;7.890;2023-03-25T07:53:11;6.77;;;2.03;;
15295;SDS011;7749;49.964;7.890;2023-03-25T07:55:42;6.73;;;2.43;;
15295;SDS011;7749;49.964;7.890;2023-03-25T07:58:14;5.63;;;2.10;;
15295;SDS011;7749;49.964;7.890;2023-03-25T08:00:45;7.00;;;1.83;;
15295;SDS011;7749;49.964;7.890;2023-03-25T08:03:15;7.47;;;2.10;;
15295;SDS011;7749;49.964;7.890;2023-03-25T08:05:46;9.57;;;1.93;;
15295;SDS011;7749;49.964;7.890;2023-03-25T08:08:14;11.33;;;2.00;;
15295;SDS011;7749;49.964;7.890;2023-03-25T08:10:42;5.47;;;1.67;;
15295;SDS011;7749;49.964;7.890;2023-03-25T08:13:12;10.53;;;2.33;;
15295;SDS011;7749;49.964;7.890;2023-03-25T08:15:40;8.00;;;2.37;;
15295;SDS011;7749;49.964;7.890;2023-03-25T08:18:11;8.57;;;2.40;;
15295;SDS011;7749;49.964;7.890;2023-03-25T08:20:39;5.27;;;1.73;;
15295;SDS011;7749;49.964;7.890;2023-03-25T08:23:07;10.60;;;2.57;;
15295;SDS011;7749;49.964;7.890;2023-03-25T08:25:38;9.13;;;2.53;;
15295;SDS011;7749;49.964;7.890;2023-03-25T08:28:09;10.03;;;1.87;;
15295;SDS011;7749;49.964;7.890;2023-03-25T08:33:31;7.53;;;2.00;;
15295;SDS011;7749;49.964;7.890;2023-03-25T08:36:06;5.67;;;1.80;;
15295;SDS011;7749;49.964;7.890;2023-03-25T08:38:36;5.57;;;1.83;;
15295;SDS011;7749;49.964;7.890;2023-03-25T08:41:04;6.83;;;2.13;;
15295;SDS011;7749;49.964;7.890;2023-03-25T08:43:32;7.40;;;1.57;;
15295;SDS011;7749;49.964;7.890;2023-03-25T08:46:00;6.40;;;1.60;;
15295;SDS011;7749;49.964;7.890;2023-03-25T08:48:27;7.93;;;2.40;;
15295;SDS011;7749;49.964;7.890;2023-03-25T08:50:55;7.10;;;2.00;;
15295;SDS011;7749;49.964;7.890;2023-03-25T08:53:23;6.43;;;1.77;;
15295;SDS011;7749;49.964;7.890;2023-03-25T08:55:54;6.33;;;1.70;;
15295;SDS011;7749;49.964;7.890;2023-03-25T08:58:23;8.43;;;2.10;;
15295;SDS011;7749;49.964;7.890;2023-03-25T09:03:28;12.17;;;2.30;;
15295;SDS011;7749;49.964;7.890;2023-03-25T09:06:05;10.00;;;1.80;;
15295;SDS011;7749;49.964;7.890;2023-03-25T09:08:37;10.00;;;1.87;;
15295;SDS011;7749;49.964;7.890;2023-03-25T09:11:05;4.77;;;1.53;;
15295;SDS011;7749;49.964;7.890;2023-03-25T09:13:35;5.33;;;1.90;;
15295;SDS011;7749;49.964;7.890;2023-03-25T09:16:03;4.37;;;1.00;;
15295;SDS011;7749;49.964;7.890;2023-03-25T09:33:48;1.83;;;0.93;;
15295;SDS011;7749;49.964;7.890;2023-03-25T09:36:16;2.87;;;1.30;;
15295;SDS011;7749;49.964;7.890;2023-03-25T09:38:44;2.73;;;0.70;;
15295;SDS011;7749;49.964;7.890;2023-03-25T09:41:29;2.13;;;0.60;;
15295;SDS011;7749;49.964;7.890;2023-03-25T09:44:15;1.90;;;1.00;;
15295;SDS011;7749;49.964;7.890;2023-03-25T09:47:06;1.83;;;0.83;;
15295;SDS011;7749;49.964;7.890;2023-03-25T09:49:43;0.70;;;0.70;;
15295;SDS011;7749;49.964;7.890;2023-03-25T09:52:21;1.30;;;0.70;;
15295;SDS011;7749;49.964;7.890;2023-03-25T09:55:19;1.70;;;0.80;;
15295;SDS011;7749;49.964;7.890;2023-03-25T09:58:18;0.90;;;0.67;;
15295;SDS011;7749;49.964;7.890;2023-03-25T10:00:50;3.27;;;0.70;;
15295;SDS011;7749;49.964;7.890;2023-03-25T10:03:46;1.17;;;0.70;;
15295;SDS011;7749;49.964;7.890;2023-03-25T10:06:29;3.03;;;0.93;;
15295;SDS011;7749;49.964;7.890;2023-03-25T10:09:09;3.80;;;1.10;;
15295;SDS011;7749;49.964;7.890;2023-03-25T10:14:46;5.07;;;1.23;;
15295;SDS011;7749;49.964;7.890;2023-03-25T10:17:23;5.67;;;1.30;;
15295;SDS011;7749;49.964;7.890;2023-03-25T10:23:15;3.97;;;1.20;;
15295;SDS011;7749;49.964;7.890;2023-03-25T10:26:22;4.90;;;1.27;;
15295;SDS011;7749;49.964;7.890;2023-03-25T10:29:26;4.07;;;1.17;;
15295;SDS011;7749;49.964;7.890;2023-03-25T10:32:14;5.63;;;1.30;;
15295;SDS011;7749;49.964;7.890;2023-03-25T10:34:48;3.73;;;0.90;;
15295;SDS011;7749;49.964;7.890;2023-03-25T10:37:25;4.40;;;1.47;;
15295;SDS011;7749;49.964;7.890;2023-03-25T10:49:05;3.27;;;1.17;;
15295;SDS011;7749;49.964;7.890;2023-03-25T10:51:37;5.77;;;1.50;;
15295;SDS011;7749;49.964;7.890;2023-03-25T10:54:05;3.03;;;1.43;;
15295;SDS011;7749;49.964;7.890;2023-03-25T10:56:47;5.43;;;1.20;;
15295;SDS011;7749;49.964;7.890;2023-03-25T10:59:26;5.70;;;1.47;;
15295;SDS011;7749;49.964;7.890;2023-03-25T11:02:29;3.70;;;1.73;;
15295;SDS011;7749;49.964;7.890;2023-03-25T11:05:00;5.33;;;1.47;;
15295;SDS011;7749;49.964;7.890;2023-03-25T11:07:32;4.90;;;1.30;;
15295;SDS011;7749;49.964;7.890;2023-03-25T11:12:43;5.20;;;1.43;;
15295;SDS011;7749;49.964;7.890;2023-03-25T11:15:15;3.20;;;1.10;;
15295;SDS011;7749;49.964;7.890;2023-03-25T11:20:30;3.30;;;1.10;;
15295;SDS011;7749;49.964;7.890;2023-03-25T11:23:05;2.67;;;0.90;;
15295;SDS011;7749;49.964;7.890;2023-03-25T11:25:54;2.63;;;1.17;;
15295;SDS011;7749;49.964;7.890;2023-03-25T11:28:35;3.37;;;0.90;;
15295;SDS011;7749;49.964;7.890;2023-03-25T11:31:27;3.07;;;1.00;;
15295;SDS011;7749;49.964;7.890;2023-03-25T11:36:31;2.30;;;0.90;;
15295;SDS011;7749;49.964;7.890;2023-03-25T11:39:15;3.40;;;1.40;;
15295;SDS011;7749;49.964;7.890;2023-03-25T11:41:45;2.90;;;0.90;;
15295;SDS011;7749;49.964;7.890;2023-03-25T11:44:26;4.27;;;1.67;;
15295;SDS011;7749;49.964;7.890;2023-03-25T11:46:57;3.43;;;0.87;;
15295;SDS011;7749;49.964;7.890;2023-03-25T11:49:35;3.60;;;1.00;;
15295;SDS011;7749;49.964;7.890;2023-03-25T11:52:12;4.23;;;1.10;;
15295;SDS011;7749;49.964;7.890;2023-03-25T11:54:53;2.70;;;1.00;;
15295;SDS011;7749;49.964;7.890;2023-03-25T11:57:37;3.83;;;1.20;;
15295;SDS011;7749;49.964;7.890;2023-03-25T12:03:02;4.03;;;1.10;;
15295;SDS011;7749;49.964;7.890;2023-03-25T12:05:40;3.13;;;1.00;;
15295;SDS011;7749;49.964;7.890;2023-03-25T12:10:46;2.60;;;0.83;;
15295;SDS011;7749;49.964;7.890;2023-03-25T12:21:46;3.30;;;0.70;;
15295;SDS011;7749;49.964;7.890;2023-03-25T12:27:05;3.17;;;0.93;;
15295;SDS011;7749;49.964;7.890;2023-03-25T12:35:42;3.15;;;0.95;;
15295;SDS011;7749;49.964;7.890;2023-03-25T12:43:48;4.83;;;1.00;;
15295;SDS011;7749;49.964;7.890;2023-03-25T12:46:28;4.33;;;1.00;;
15295;SDS011;7749;49.964;7.890;2023-03-25T12:51:41;2.33;;;1.00;;
15295;SDS011;7749;49.964;7.890;2023-03-25T12:54:23;3.03;;;0.93;;
15295;SDS011;7749;49.964;7.890;2023-03-25T13:08:57;1.50;;;0.77;;
15295;SDS011;7749;49.964;7.890;2023-03-25T13:11:41;1.75;;;0.90;;
15295;SDS011;7749;49.964;7.890;2023-03-25T13:14:49;3.22;;;1.40;;
15295;SDS011;7749;49.964;7.890;2023-03-25T13:17:30;2.45;;;1.08;;
15295;SDS011;7749;49.964;7.890;2023-03-25T13:20:04;2.55;;;0.85;;
15295;SDS011;7749;49.964;7.890;2023-03-25T13:22:38;1.98;;;1.00;;
15295;SDS011;7749;49.964;7.890;2023-03-25T13:25:15;2.58;;;1.10;;
15295;SDS011;7749;49.964;7.890;2023-03-25T13:27:46;2.35;;;0.88;;
15295;SDS011;7749;49.964;7.890;2023-03-25T13:30:19;3.55;;;1.00;;
15295;SDS011;7749;49.964;7.890;2023-03-25T13:33:02;3.70;;;1.10;;
15295;SDS011;7749;49.964;7.890;2023-03-25T13:35:55;5.53;;;2.97;;
15295;SDS011;7749;49.964;7.890;2023-03-25T13:38:44;3.50;;;1.20;;
15295;SDS011;7749;49.964;7.890;2023-03-25T13:41:39;3.27;;;1.20;;
15295;SDS011;7749;49.964;7.890;2023-03-25T13:44:25;4.93;;;1.10;;
15295;SDS011;7749;49.964;7.890;2023-03-25T13:49:55;3.20;;;0.90;;
15295;SDS011;7749;49.964;7.890;2023-03-25T13:52:30;2.28;;;1.00;;
15295;SDS011;7749;49.964;7.890;2023-03-25T13:55:17;3.30;;;1.17;;
15295;SDS011;7749;49.964;7.890;2023-03-25T14:00:40;2.65;;;1.08;;
15295;SDS011;7749;49.964;7.890;2023-03-25T14:03:49;2.30;;;1.30;;
15295;SDS011;7749;49.964;7.890;2023-03-25T14:12:42;2.55;;;0.95;;
15295;SDS011;7749;49.964;7.890;2023-03-25T14:15:20;2.80;;;0.93;;
15295;SDS011;7749;49.964;7.890;2023-03-25T14:17:57;2.75;;;1.00;;
15295;SDS011;7749;49.964;7.890;2023-03-25T14:20:34;3.10;;;1.00;;
15295;SDS011;7749;49.964;7.890;2023-03-25T14:23:11;1.75;;;1.08;;
15295;SDS011;7749;49.964;7.890;2023-03-25T14:25:45;3.80;;;1.20;;
15295;SDS011;7749;49.964;7.890;2023-03-25T14:28:34;3.95;;;1.20;;
15295;SDS011;7749;49.964;7.890;2023-03-25T14:34:39;3.55;;;1.10;;
15295;SDS011;7749;49.964;7.890;2023-03-25T14:44:35;2.40;;;0.93;;
15295;SDS011;7749;49.964;7.890;2023-03-25T14:49:49;4.53;;;1.20;;
15295;SDS011;7749;49.964;7.890;2023-03-25T14:52:40;1.52;;;0.70;;
15295;SDS011;7749;49.964;7.890;2023-03-25T14:55:20;4.28;;;1.23;;
15295;SDS011;7749;49.964;7.890;2023-03-25T14:57:59;4.53;;;1.13;;
15295;SDS011;7749;49.964;7.890;2023-03-25T15:00:32;2.92;;;0.90;;
15295;SDS011;7749;49.964;7.890;2023-03-25T15:03:24;4.18;;;1.40;;
15295;SDS011;7749;49.964;7.890;2023-03-25T15:06:00;3.58;;;1.08;;
15295;SDS011;7749;49.964;7.890;2023-03-25T15:13:34;3.92;;;1.20;;
15295;SDS011;7749;49.964;7.890;2023-03-25T15:16:15;3.63;;;1.45;;
15295;SDS011;7749;49.964;7.890;2023-03-25T15:19:17;1.77;;;0.90;;
15295;SDS011;7749;49.964;7.890;2023-03-25T15:22:04;3.42;;;1.30;;
15295;SDS011;7749;49.964;7.890;2023-03-25T15:24:46;2.90;;;1.13;;
15295;SDS011;7749;49.964;7.890;2023-03-25T15:28:01;2.40;;;1.10;;
15295;SDS011;7749;49.964;7.890;2023-03-25T15:36:38;3.53;;;1.03;;
15295;SDS011;7749;49.964;7.890;2023-03-25T15:42:32;3.05;;;0.98;;
15295;SDS011;7749;49.964;7.890;2023-03-25T15:47:59;3.50;;;1.10;;
15295;SDS011;7749;49.964;7.890;2023-03-25T15:56:41;1.88;;;0.82;;
15295;SDS011;7749;49.964;7.890;2023-03-25T15:59:27;4.72;;;1.27;;
15295;SDS011;7749;49.964;7.890;2023-03-25T16:01:56;3.38;;;1.30;;
15295;SDS011;7749;49.964;7.890;2023-03-25T16:04:42;2.58;;;1.23;;
15295;SDS011;7749;49.964;7.890;2023-03-25T16:07:16;3.90;;;1.00;;
15295;SDS011;7749;49.964;7.890;2023-03-25T16:09:47;3.13;;;1.30;;
15295;SDS011;7749;49.964;7.890;2023-03-25T16:12:17;2.58;;;1.05;;
15295;SDS011;7749;49.964;7.890;2023-03-25T16:14:50;4.72;;;1.02;;
15295;SDS011;7749;49.964;7.890;2023-03-25T16:17:19;2.10;;;1.00;;
15295;SDS011;7749;49.964;7.890;2023-03-25T16:19:51;4.47;;;1.00;;
15295;SDS011;7749;49.964;7.890;2023-03-25T16:22:27;3.60;;;1.00;;
15295;SDS011;7749;49.964;7.890;2023-03-25T16:25:05;2.17;;;0.98;;
15295;SDS011;7749;49.964;7.890;2023-03-25T16:27:44;2.63;;;0.93;;
15295;SDS011;7749;49.964;7.890;2023-03-25T16:35:34;2.03;;;0.77;;
15295;SDS011;7749;49.964;7.890;2023-03-25T16:38:23;4.20;;;1.20;;
15295;SDS011;7749;49.964;7.890;2023-03-25T16:40:57;4.07;;;1.30;;
15295;SDS011;7749;49.964;7.890;2023-03-25T16:43:30;3.47;;;1.00;;
15295;SDS011;7749;49.964;7.890;2023-03-25T16:45:59;3.53;;;1.60;;
15295;SDS011;7749;49.964;7.890;2023-03-25T16:48:31;5.03;;;1.70;;
15295;SDS011;7749;49.964;7.890;2023-03-25T16:51:10;4.80;;;1.60;;
15295;SDS011;7749;49.964;7.890;2023-03-25T16:53:43;4.23;;;1.87;;
15295;SDS011;7749;49.964;7.890;2023-03-25T16:58:51;3.90;;;1.70;;
15295;SDS011;7749;49.964;7.890;2023-03-25T17:01:34;5.67;;;2.10;;
15295;SDS011;7749;49.964;7.890;2023-03-25T17:04:18;6.17;;;1.33;;
15295;SDS011;7749;49.964;7.890;2023-03-25T17:06:49;5.63;;;1.40;;
15295;SDS011;7749;49.964;7.890;2023-03-25T17:09:28;2.93;;;0.90;;
15295;SDS011;7749;49.964;7.890;2023-03-25T17:12:18;4.33;;;1.60;;
15295;SDS011;7749;49.964;7.890;2023-03-25T17:14:48;3.00;;;0.90;;
15295;SDS011;7749;49.964;7.890;2023-03-25T17:19:48;3.90;;;1.20;;
15295;SDS011;7749;49.964;7.890;2023-03-25T17:25:13;2.43;;;1.13;;
15295;SDS011;7749;49.964;7.890;2023-03-25T17:27:54;2.70;;;0.80;;
15295;SDS011;7749;49.964;7.890;2023-03-25T17:30:36;4.03;;;1.33;;
15295;SDS011;7749;49.964;7.890;2023-03-25T17:33:10;1.77;;;0.90;;
15295;SDS011;7749;49.964;7.890;2023-03-25T17:35:42;4.10;;;1.50;;
15295;SDS011;7749;49.964;7.890;2023-03-25T17:38:12;1.93;;;0.70;;
15295;SDS011;7749;49.964;7.890;2023-03-25T17:41:05;2.83;;;0.70;;
15295;SDS011;7749;49.964;7.890;2023-03-25T17:43:35;1.73;;;0.80;;
15295;SDS011;7749;49.964;7.890;2023-03-25T17:46:07;1.80;;;0.83;;
15295;SDS011;7749;49.964;7.890;2023-03-25T17:48:36;1.93;;;0.67;;
15295;SDS011;7749;49.964;7.890;2023-03-25T17:51:04;2.77;;;1.10;;
15295;SDS011;7749;49.964;7.890;2023-03-25T17:53:32;2.97;;;0.70;;
15295;SDS011;7749;49.964;7.890;2023-03-25T17:55:59;2.53;;;0.80;;
15295;SDS011;7749;49.964;7.890;2023-03-25T17:58:29;1.73;;;1.00;;
15295;SDS011;7749;49.964;7.890;2023-03-25T18:00:57;1.73;;;0.60;;
15295;SDS011;7749;49.964;7.890;2023-03-25T18:03:25;2.00;;;0.60;;
15295;SDS011;7749;49.964;7.890;2023-03-25T18:05:56;0.77;;;0.50;;
15295;SDS011;7749;49.964;7.890;2023-03-25T18:08:30;2.30;;;0.77;;
15295;SDS011;7749;49.964;7.890;2023-03-25T18:11:39;2.30;;;0.90;;
15295;SDS011;7749;49.964;7.890;2023-03-25T18:14:38;2.30;;;0.60;;
15295;SDS011;7749;49.964;7.890;2023-03-25T18:17:39;1.20;;;0.70;;
15295;SDS011;7749;49.964;7.890;2023-03-25T18:21:05;4.53;;;1.77;;
15295;SDS011;7749;49.964;7.890;2023-03-25T18:24:48;3.57;;;1.50;;
15295;SDS011;7749;49.964;7.890;2023-03-25T18:27:34;2.17;;;0.80;;
15295;SDS011;7749;49.964;7.890;2023-03-25T18:30:45;2.10;;;1.10;;
15295;SDS011;7749;49.964;7.890;2023-03-25T18:33:18;3.13;;;0.93;;
15295;SDS011;7749;49.964;7.890;2023-03-25T18:35:46;1.70;;;1.10;;
15295;SDS011;7749;49.964;7.890;2023-03-25T18:38:21;1.60;;;0.73;;
15295;SDS011;7749;49.964;7.890;2023-03-25T18:40:50;3.30;;;0.97;;
15295;SDS011;7749;49.964;7.890;2023-03-25T18:43:20;1.20;;;0.63;;
15295;SDS011;7749;49.964;7.890;2023-03-25T18:45:48;6.53;;;0.80;;
15295;SDS011;7749;49.964;7.890;2023-03-25T18:48:20;3.03;;;0.93;;
15295;SDS011;7749;49.964;7.890;2023-03-25T18:50:50;1.07;;;0.77;;